createdAt,value
2022-10-01T00:01:07.162Z,15.59
2022-10-01T00:03:34.920Z,15.57
2022-10-01T00:06:06.408Z,15.56
2022-10-01T00:08:33.824Z,15.53
2022-10-01T00:11:01.612Z,15.55
2022-10-01T00:13:30.617Z,15.59
2022-10-01T00:15:57.569Z,15.54
2022-10-01T00:18:24.082Z,15.52
2022-10-01T00:20:50.769Z,15.40
2022-10-01T00:23:19.383Z,15.55
2022-10-01T00:25:46.016Z,15.48
2022-10-01T00:28:12.694Z,15.54
2022-10-01T00:30:46.511Z,15.51
2022-10-01T00:33:13.090Z,15.47
2022-10-01T00:35:39.665Z,15.40
2022-10-01T00:38:06.249Z,15.45
2022-10-01T00:40:39.370Z,15.46
2022-10-01T00:43:31.400Z,15.42
2022-10-01T00:46:09.441Z,15.37
2022-10-01T00:49:01.865Z,15.33
2022-10-01T00:51:33.284Z,15.25
2022-10-01T00:54:08.792Z,15.28
2022-10-01T00:56:36.852Z,15.25
2022-10-01T00:59:04.538Z,15.26
2022-10-01T01:01:31.466Z,15.24
2022-10-01T01:03:58.812Z,15.22
2022-10-01T01:06:25.547Z,15.29
2022-10-01T01:08:55.193Z,15.27
2022-10-01T01:11:32.134Z,15.28
2022-10-01T01:14:12.188Z,15.27
2022-10-01T01:17:01.472Z,15.24
2022-10-01T01:19:43.435Z,15.24
2022-10-01T01:22:13.434Z,15.24
2022-10-01T01:24:51.675Z,15.21
2022-10-01T01:27:29.007Z,15.20
2022-10-01T01:30:03.776Z,15.20
2022-10-01T01:32:53.006Z,15.19
2022-10-01T01:35:26.559Z,15.19
2022-10-01T01:37:58.772Z,15.18
2022-10-01T01:40:27.242Z,15.18
2022-10-01T01:42:56.246Z,15.09
2022-10-01T01:45:30.755Z,15.19
2022-10-01T01:48:02.179Z,15.15
2022-10-01T01:50:34.429Z,15.18
2022-10-01T01:53:01.179Z,15.14
2022-10-01T01:55:30.039Z,15.12
2022-10-01T01:57:57.217Z,15.11
2022-10-01T02:00:23.945Z,15.09
2022-10-01T02:02:53.957Z,15.07
2022-10-01T02:05:25.802Z,15.00
2022-10-01T02:08:33.073Z,14.98
2022-10-01T02:11:23.734Z,14.84
2022-10-01T02:14:21.371Z,14.82
2022-10-01T02:17:03.629Z,14.75
2022-10-01T02:19:46.007Z,14.66
2022-10-01T02:22:44.918Z,14.53
2022-10-01T02:25:15.501Z,14.55
2022-10-01T02:27:48.802Z,14.50
2022-10-01T02:30:15.491Z,14.43
2022-10-01T02:32:46.018Z,14.40
2022-10-01T02:35:16.356Z,14.42
2022-10-01T02:37:45.313Z,14.36
2022-10-01T02:40:16.239Z,14.34
2022-10-01T02:42:50.003Z,14.24
2022-10-01T02:45:22.808Z,14.25
2022-10-01T02:47:59.012Z,14.19
2022-10-01T02:50:32.226Z,14.18
2022-10-01T02:53:07.073Z,14.16
2022-10-01T02:55:37.864Z,14.12
2022-10-01T02:58:05.394Z,14.08
2022-10-01T03:00:32.361Z,14.05
2022-10-01T03:02:59.120Z,14.00
2022-10-01T03:05:25.966Z,14.00
2022-10-01T03:07:52.992Z,14.00
2022-10-01T03:10:19.841Z,13.99
2022-10-01T03:12:46.936Z,13.98
2022-10-01T03:15:15.333Z,13.96
2022-10-01T03:17:41.866Z,13.90
2022-10-01T03:20:09.744Z,13.87
2022-10-01T03:22:36.429Z,13.82
2022-10-01T03:25:03.551Z,13.76
2022-10-01T03:27:30.310Z,13.71
2022-10-01T03:29:56.892Z,13.73
2022-10-01T03:32:23.504Z,13.75
2022-10-01T03:34:50.132Z,13.73
2022-10-01T03:37:16.747Z,13.56
2022-10-01T03:39:43.271Z,13.66
2022-10-01T03:42:09.817Z,13.62
2022-10-01T03:44:36.427Z,13.58
2022-10-01T03:47:02.994Z,13.57
2022-10-01T03:49:29.534Z,13.52
2022-10-01T03:51:56.556Z,13.50
2022-10-01T03:54:23.373Z,13.43
2022-10-01T03:56:49.977Z,13.48
2022-10-01T03:59:16.609Z,13.48
2022-10-01T04:01:43.217Z,13.43
2022-10-01T04:04:10.006Z,13.45
2022-10-01T04:06:36.610Z,13.38
2022-10-01T04:09:03.379Z,13.37
2022-10-01T04:11:30.373Z,13.30
2022-10-01T04:13:59.928Z,13.32
2022-10-01T04:16:26.479Z,13.22
2022-10-01T04:18:53.846Z,13.21
2022-10-01T04:21:20.443Z,13.21
2022-10-01T04:23:47.152Z,13.16
2022-10-01T04:26:13.773Z,13.14
2022-10-01T04:28:40.364Z,13.08
2022-10-01T04:31:25.173Z,13.03
2022-10-01T04:33:53.847Z,13.08
2022-10-01T04:36:20.916Z,13.07
2022-10-01T04:38:51.012Z,13.05
2022-10-01T04:41:17.617Z,13.06
2022-10-01T04:43:44.258Z,12.85
2022-10-01T04:46:10.821Z,12.89
2022-10-01T04:48:37.310Z,12.95
2022-10-01T04:51:03.952Z,12.91
2022-10-01T04:53:30.750Z,12.90
2022-10-01T04:55:57.302Z,12.88
2022-10-01T04:58:24.034Z,12.88
2022-10-01T05:00:50.859Z,12.86
2022-10-01T05:03:17.921Z,12.84
2022-10-01T05:05:44.607Z,12.77
2022-10-01T05:08:11.161Z,12.76
2022-10-01T05:10:37.844Z,12.72
2022-10-01T05:13:04.448Z,12.77
2022-10-01T05:15:31.251Z,12.75
2022-10-01T05:17:57.826Z,12.75
2022-10-01T05:20:27.069Z,12.74
2022-10-01T05:22:54.471Z,12.70
2022-10-01T05:25:21.313Z,12.67
2022-10-01T05:27:47.970Z,12.71
2022-10-01T05:30:24.060Z,12.67
2022-10-01T05:32:56.417Z,12.63
2022-10-01T05:35:23.438Z,12.62
2022-10-01T05:37:54.015Z,12.69
2022-10-01T05:40:20.652Z,12.69
2022-10-01T05:42:47.542Z,12.74
2022-10-01T05:45:14.261Z,12.80
2022-10-01T05:47:42.407Z,12.83
2022-10-01T05:50:09.697Z,12.90
2022-10-01T05:52:36.263Z,12.94
2022-10-01T05:55:03.054Z,13.04
2022-10-01T05:57:31.139Z,13.11
2022-10-01T05:59:58.030Z,13.18
2022-10-01T06:02:24.737Z,13.19
2022-10-01T06:04:51.616Z,13.30
2022-10-01T06:07:18.345Z,13.49
2022-10-01T06:09:45.249Z,13.58
2022-10-01T06:12:13.662Z,13.68
2022-10-01T06:14:43.021Z,13.78
2022-10-01T06:17:09.576Z,13.99
2022-10-01T06:19:36.158Z,14.09
2022-10-01T06:22:02.692Z,14.29
2022-10-01T06:24:30.248Z,14.49
2022-10-01T06:26:57.170Z,14.64
2022-10-01T06:29:24.061Z,14.65
2022-10-01T06:31:51.912Z,14.74
2022-10-01T06:34:18.693Z,14.83
2022-10-01T06:36:45.439Z,14.87
2022-10-01T06:39:12.001Z,14.83
2022-10-01T06:41:38.591Z,14.93
2022-10-01T06:44:05.273Z,15.02
2022-10-01T06:46:32.450Z,15.09
2022-10-01T06:48:59.342Z,15.24
2022-10-01T06:51:44.519Z,15.49
2022-10-01T06:54:11.099Z,15.83
2022-10-01T06:56:37.772Z,16.37
2022-10-01T06:59:04.447Z,16.60
2022-10-01T07:01:33.029Z,16.87
2022-10-01T07:03:59.801Z,17.13
2022-10-01T07:06:26.533Z,17.31
2022-10-01T07:08:53.225Z,17.41
2022-10-01T07:11:20.430Z,17.50
2022-10-01T07:13:49.992Z,17.44
2022-10-01T07:16:19.083Z,17.54
2022-10-01T07:18:45.611Z,18.25
2022-10-01T07:21:12.230Z,18.94
2022-10-01T07:23:38.830Z,19.44
2022-10-01T07:26:06.115Z,19.17
2022-10-01T07:28:32.634Z,19.88
2022-10-01T07:31:06.862Z,20.11
2022-10-01T07:33:33.442Z,20.19
2022-10-01T07:36:01.733Z,20.91
2022-10-01T07:38:28.869Z,21.18
2022-10-01T07:40:55.470Z,21.41
2022-10-01T07:43:22.709Z,21.22
2022-10-01T07:45:50.256Z,21.89
2022-10-01T07:48:17.173Z,22.14
2022-10-01T07:50:47.525Z,22.73
2022-10-01T07:53:14.378Z,22.90
2022-10-01T07:55:40.952Z,23.45
2022-10-01T07:58:08.121Z,23.70
2022-10-01T08:00:35.383Z,24.27
2022-10-01T08:03:02.039Z,24.43
2022-10-01T08:05:31.194Z,23.77
2022-10-01T08:08:03.570Z,24.17
2022-10-01T08:10:30.674Z,24.37
2022-10-01T08:13:08.210Z,24.27
2022-10-01T08:15:35.582Z,23.60
2022-10-01T08:18:05.597Z,23.48
2022-10-01T08:20:32.550Z,23.04
2022-10-01T08:23:07.784Z,23.28
2022-10-01T08:25:35.100Z,22.86
2022-10-01T08:28:02.058Z,22.60
2022-10-01T08:30:29.682Z,22.77
2022-10-01T08:32:58.177Z,23.02
2022-10-01T08:35:25.511Z,23.20
2022-10-01T08:37:52.205Z,22.85
2022-10-01T08:40:21.658Z,22.89
2022-10-01T08:42:51.150Z,23.32
2022-10-01T08:45:27.118Z,23.01
2022-10-01T08:48:07.616Z,22.79
2022-10-01T08:50:56.284Z,22.35
2022-10-01T08:53:38.331Z,22.28
2022-10-01T08:56:12.955Z,22.06
2022-10-01T08:58:45.777Z,21.59
2022-10-01T09:01:12.457Z,21.73
2022-10-01T09:03:40.339Z,21.96
2022-10-01T09:06:21.517Z,22.38
2022-10-01T09:09:20.403Z,22.82
2022-10-01T09:12:14.132Z,23.17
2022-10-01T09:15:17.966Z,23.11
2022-10-01T09:17:44.402Z,22.90
2022-10-01T09:20:27.499Z,22.51
2022-10-01T09:23:18.845Z,22.37
2022-10-01T09:25:50.310Z,21.94
2022-10-01T09:28:30.219Z,22.07
2022-10-01T09:30:59.133Z,22.15
2022-10-01T09:33:33.722Z,22.02
2022-10-01T09:36:34.227Z,21.86
2022-10-01T09:39:21.842Z,22.05
2022-10-01T09:41:48.474Z,22.45
2022-10-01T09:44:28.828Z,22.93
2022-10-01T09:46:55.658Z,23.40
2022-10-01T09:49:31.646Z,23.46
2022-10-01T09:52:04.204Z,23.66
2022-10-01T09:54:46.874Z,23.46
2022-10-01T09:57:36.094Z,22.87
2022-10-01T10:00:18.300Z,22.77
2022-10-01T10:02:50.491Z,23.00
2022-10-01T10:05:20.486Z,22.92
2022-10-01T10:07:51.791Z,22.72
2022-10-01T10:10:28.564Z,22.65
2022-10-01T10:13:01.845Z,22.53
2022-10-01T10:15:31.370Z,22.91
2022-10-01T10:18:07.167Z,22.72
2022-10-01T10:20:41.476Z,22.73
2022-10-01T10:23:17.402Z,22.60
2022-10-01T10:25:44.238Z,22.34
2022-10-01T10:28:23.697Z,22.34
2022-10-01T10:30:54.042Z,22.43
2022-10-01T10:33:23.400Z,22.55
2022-10-01T10:36:05.145Z,22.50
2022-10-01T10:38:34.839Z,23.14
2022-10-01T10:41:03.979Z,23.70
2022-10-01T10:43:36.599Z,23.59
2022-10-01T10:46:03.693Z,23.45
2022-10-01T10:48:35.346Z,23.59
2022-10-01T10:51:04.891Z,23.53
2022-10-01T10:53:44.250Z,23.54
2022-10-01T10:56:21.897Z,23.28
2022-10-01T10:58:49.983Z,23.47
2022-10-01T11:01:28.784Z,23.41
2022-10-01T11:03:58.663Z,23.46
2022-10-01T11:06:25.590Z,23.65
2022-10-01T11:09:07.241Z,23.56
2022-10-01T11:11:48.648Z,23.59
2022-10-01T11:14:31.188Z,23.44
2022-10-01T11:17:20.320Z,23.63
2022-10-01T11:20:02.182Z,23.54
2022-10-01T11:22:46.901Z,23.51
2022-10-01T11:25:35.638Z,23.71
2022-10-01T11:28:57.674Z,23.93
2022-10-01T11:31:47.261Z,23.55
2022-10-01T11:34:55.245Z,23.31
2022-10-01T11:37:33.743Z,23.66
2022-10-01T11:40:05.135Z,23.77
2022-10-01T11:42:36.809Z,23.50
2022-10-01T11:45:11.259Z,23.50
2022-10-01T11:48:01.948Z,23.63
2022-10-01T11:50:39.051Z,23.69
2022-10-01T11:53:17.983Z,23.88
2022-10-01T11:56:10.741Z,23.63
2022-10-01T11:58:54.734Z,23.73
2022-10-01T12:01:24.963Z,23.66
2022-10-01T12:03:54.606Z,23.47
2022-10-01T12:06:33.773Z,23.17
2022-10-01T12:09:15.006Z,23.20
2022-10-01T12:11:54.556Z,23.07
2022-10-01T12:14:31.644Z,22.94
2022-10-01T12:17:13.671Z,22.85
2022-10-01T12:19:45.244Z,22.49
2022-10-01T12:22:24.555Z,22.68
2022-10-01T12:24:53.202Z,22.48
2022-10-01T12:27:32.020Z,22.49
2022-10-01T12:30:07.816Z,23.04
2022-10-01T12:33:01.923Z,23.46
2022-10-01T12:35:51.920Z,23.48
2022-10-01T12:38:45.048Z,23.21
2022-10-01T12:41:43.116Z,22.93
2022-10-01T12:44:27.537Z,22.70
2022-10-01T12:47:14.616Z,22.86
2022-10-01T12:49:58.515Z,22.78
2022-10-01T12:52:40.323Z,22.73
2022-10-01T12:55:43.424Z,22.64
2022-10-01T12:58:39.995Z,22.74
2022-10-01T13:01:19.192Z,22.92
2022-10-01T13:06:55.227Z,23.43
2022-10-01T13:09:38.516Z,23.50
2022-10-01T13:12:05.378Z,23.34
2022-10-01T13:14:34.784Z,23.30
2022-10-01T13:17:21.569Z,23.30
2022-10-01T13:19:58.276Z,22.99
2022-10-01T13:22:42.926Z,22.90
2022-10-01T13:25:25.124Z,22.87
2022-10-01T13:27:56.069Z,22.89
2022-10-01T13:30:24.932Z,22.91
2022-10-01T13:32:57.864Z,22.80
2022-10-01T13:35:35.956Z,22.75
2022-10-01T13:38:13.681Z,22.70
2022-10-01T13:40:41.060Z,22.64
2022-10-01T13:43:16.703Z,22.79
2022-10-01T13:45:46.426Z,22.91
2022-10-01T13:48:18.400Z,23.14
2022-10-01T13:51:10.745Z,23.25
2022-10-01T13:53:47.446Z,23.31
2022-10-01T13:56:28.521Z,23.09
2022-10-01T13:58:55.558Z,23.18
2022-10-01T14:01:24.354Z,22.90
2022-10-01T14:03:55.622Z,22.90
2022-10-01T14:06:33.200Z,23.04
2022-10-01T14:09:11.796Z,22.84
2022-10-01T14:12:00.850Z,22.62
2022-10-01T14:14:50.525Z,22.41
2022-10-01T14:17:22.426Z,22.58
2022-10-01T14:19:50.890Z,22.71
2022-10-01T14:22:46.710Z,22.67
2022-10-01T14:25:35.453Z,22.74
2022-10-01T14:28:25.400Z,22.69
2022-10-01T14:31:33.804Z,22.67
2022-10-01T14:34:06.270Z,22.57
2022-10-01T14:36:35.681Z,22.52
2022-10-01T14:39:19.835Z,22.58
2022-10-01T14:41:51.993Z,22.64
2022-10-01T14:44:22.045Z,22.57
2022-10-01T14:46:49.976Z,22.39
2022-10-01T14:49:34.804Z,22.46
2022-10-01T14:52:07.281Z,22.54
2022-10-01T14:54:56.218Z,22.49
2022-10-01T14:57:35.006Z,22.45
2022-10-01T15:00:08.926Z,22.32
2022-10-01T15:02:50.836Z,22.25
2022-10-01T15:05:26.599Z,22.23
2022-10-01T15:07:53.681Z,22.12
2022-10-01T15:10:24.847Z,22.18
2022-10-01T15:12:52.816Z,22.14
2022-10-01T15:15:39.477Z,22.12
2022-10-01T15:18:06.888Z,22.09
2022-10-01T15:20:34.240Z,21.99
2022-10-01T15:23:01.789Z,21.91
2022-10-01T15:25:31.482Z,21.96
2022-10-01T15:27:58.135Z,21.88
2022-10-01T15:30:30.502Z,21.88
2022-10-01T15:32:57.644Z,21.83
2022-10-01T15:35:25.059Z,21.85
2022-10-01T15:37:53.927Z,21.77
2022-10-01T15:40:29.149Z,21.78
2022-10-01T15:43:21.672Z,21.74
2022-10-01T15:46:31.376Z,21.61
2022-10-01T15:49:19.716Z,21.51
2022-10-01T15:52:17.960Z,21.51
2022-10-01T15:54:45.984Z,21.44
2022-10-01T15:57:20.949Z,21.42
2022-10-01T15:59:50.066Z,21.29
2022-10-01T16:02:26.270Z,21.29
2022-10-01T16:04:55.994Z,21.18
2022-10-01T16:07:29.496Z,21.17
2022-10-01T16:09:59.158Z,21.06
2022-10-01T16:12:29.370Z,21.01
2022-10-01T16:15:01.462Z,20.88
2022-10-01T16:17:35.369Z,20.90
2022-10-01T16:20:14.050Z,20.86
2022-10-01T16:22:40.740Z,20.70
2022-10-01T16:25:25.568Z,20.71
2022-10-01T16:27:55.358Z,20.63
2022-10-01T16:30:27.687Z,20.56
2022-10-01T16:32:55.430Z,20.47
2022-10-01T16:35:33.048Z,20.36
2022-10-01T16:38:01.031Z,20.30
2022-10-01T16:40:33.036Z,20.07
2022-10-01T16:43:00.691Z,20.12
2022-10-01T16:45:32.758Z,20.08
2022-10-01T16:48:00.527Z,19.95
2022-10-01T16:50:27.371Z,19.78
2022-10-01T16:52:55.744Z,19.82
2022-10-01T16:55:26.148Z,19.80
2022-10-01T16:57:57.084Z,19.54
2022-10-01T17:00:26.910Z,19.61
2022-10-01T17:02:55.451Z,19.57
2022-10-01T17:05:27.079Z,19.50
2022-10-01T17:07:55.086Z,19.42
2022-10-01T17:10:23.614Z,19.38
2022-10-01T17:12:50.359Z,19.32
2022-10-01T17:15:20.087Z,19.27
2022-10-01T17:17:48.415Z,19.24
2022-10-01T17:20:15.258Z,19.19
2022-10-01T17:22:44.904Z,19.03
2022-10-01T17:25:18.901Z,19.02
2022-10-01T17:27:46.067Z,19.01
2022-10-01T17:30:13.167Z,18.91
2022-10-01T17:32:40.371Z,18.81
2022-10-01T17:35:08.054Z,18.82
2022-10-01T17:37:34.943Z,18.75
2022-10-01T17:40:02.167Z,18.70
2022-10-01T17:42:29.142Z,18.63
2022-10-01T17:44:56.038Z,18.59
2022-10-01T17:47:22.931Z,18.51
2022-10-01T17:49:49.460Z,18.45
2022-10-01T17:52:16.769Z,18.49
2022-10-01T17:54:43.897Z,18.38
2022-10-01T17:57:13.816Z,18.41
2022-10-01T17:59:40.734Z,18.33
2022-10-01T18:02:23.558Z,18.38
2022-10-01T18:04:54.365Z,18.31
2022-10-01T18:07:21.256Z,18.15
2022-10-01T18:09:47.802Z,18.21
2022-10-01T18:12:14.662Z,18.17
2022-10-01T18:14:43.495Z,18.17
2022-10-01T18:17:10.236Z,18.10
2022-10-01T18:19:53.722Z,18.11
2022-10-01T18:22:29.556Z,18.09
2022-10-01T18:24:56.266Z,18.05
2022-10-01T18:27:22.941Z,17.95
2022-10-01T18:29:49.799Z,17.97
2022-10-01T18:32:23.729Z,17.95
2022-10-01T18:34:59.287Z,17.89
2022-10-01T18:37:57.806Z,17.81
2022-10-01T18:40:29.713Z,17.72
2022-10-01T18:43:02.438Z,17.65
2022-10-01T18:45:46.905Z,17.48
2022-10-01T18:48:25.610Z,17.51
2022-10-01T18:51:11.880Z,17.49
2022-10-01T18:54:31.929Z,17.37
2022-10-01T18:57:28.403Z,17.27
2022-10-01T19:00:17.644Z,17.29
2022-10-01T19:03:02.996Z,17.18
2022-10-01T19:05:47.655Z,17.23
2022-10-01T19:08:24.501Z,17.14
2022-10-01T19:11:17.820Z,17.15
2022-10-01T19:13:44.670Z,17.02
2022-10-01T19:16:44.283Z,17.01
2022-10-01T19:19:40.069Z,16.92
2022-10-01T19:22:47.879Z,16.86
2022-10-01T19:25:32.626Z,16.76
2022-10-01T19:28:29.277Z,16.71
2022-10-01T19:31:08.075Z,16.69
2022-10-01T19:33:42.078Z,16.61
2022-10-01T19:36:17.637Z,16.66
2022-10-01T19:38:47.185Z,16.61
2022-10-01T19:41:18.041Z,16.57
2022-10-01T19:44:24.820Z,16.66
2022-10-01T19:46:56.408Z,16.52
2022-10-01T19:49:33.968Z,16.47
2022-10-01T19:52:04.355Z,16.50
2022-10-01T19:54:34.847Z,16.47
2022-10-01T19:57:17.224Z,16.41
2022-10-01T19:59:47.300Z,16.32
2022-10-01T20:02:21.730Z,16.38
2022-10-01T20:04:58.820Z,16.31
2022-10-01T20:07:56.119Z,16.34
2022-10-01T20:10:45.312Z,16.29
2022-10-01T20:13:14.780Z,16.24
2022-10-01T20:16:38.376Z,16.19
2022-10-01T20:19:23.445Z,16.13
2022-10-01T20:22:06.342Z,16.08
2022-10-01T20:25:05.194Z,16.03
2022-10-01T20:27:49.154Z,16.00
2022-10-01T20:30:21.058Z,15.96
2022-10-01T20:33:49.553Z,15.94
2022-10-01T20:36:23.577Z,15.85
2022-10-01T20:38:57.306Z,15.78
2022-10-01T20:41:29.725Z,15.74
2022-10-01T20:44:00.060Z,15.67
2022-10-01T20:46:33.981Z,15.56
2022-10-01T20:49:05.409Z,15.48
2022-10-01T20:51:43.651Z,15.37
2022-10-01T20:54:15.610Z,15.29
2022-10-01T20:56:47.653Z,15.26
2022-10-01T20:59:24.040Z,15.30
2022-10-01T21:02:02.507Z,15.31
2022-10-01T21:04:43.407Z,15.24
2022-10-01T21:07:36.717Z,15.32
2022-10-01T21:10:21.279Z,15.33
2022-10-01T21:12:59.890Z,15.37
2022-10-01T21:15:43.705Z,15.36
2022-10-01T21:18:33.599Z,15.39
2022-10-01T21:21:32.731Z,15.36
2022-10-01T21:24:06.479Z,15.26
2022-10-01T21:26:54.393Z,15.20
2022-10-01T21:29:39.824Z,15.22
2022-10-01T21:32:06.664Z,15.19
2022-10-01T21:34:50.253Z,15.09
2022-10-01T21:37:45.857Z,15.04
2022-10-01T21:40:43.194Z,15.09
2022-10-01T21:43:47.828Z,15.07
2022-10-01T21:46:41.121Z,15.05
2022-10-01T21:49:13.594Z,15.03
2022-10-01T21:51:55.188Z,14.89
2022-10-01T21:54:40.729Z,14.92
2022-10-01T21:57:10.571Z,14.90
2022-10-01T21:59:46.068Z,14.88
2022-10-01T22:02:48.944Z,14.80
2022-10-01T22:05:37.946Z,14.80
2022-10-01T22:08:16.529Z,14.82
2022-10-01T22:10:46.941Z,14.82
2022-10-01T22:13:23.494Z,14.75
2022-10-01T22:15:54.284Z,14.75
2022-10-01T22:18:36.833Z,14.71
2022-10-01T22:21:10.745Z,14.61
2022-10-01T22:23:41.943Z,14.57
2022-10-01T22:26:16.493Z,14.52
2022-10-01T22:28:47.999Z,14.51
2022-10-01T22:31:25.977Z,14.41
2022-10-01T22:33:57.429Z,14.31
2022-10-01T22:36:44.364Z,14.28
2022-10-01T22:39:17.588Z,14.31
2022-10-01T22:41:56.463Z,14.29
2022-10-01T22:44:23.591Z,14.29
2022-10-01T22:46:55.998Z,14.23
2022-10-01T22:55:19.536Z,13.83
2022-10-01T22:57:56.166Z,13.65
2022-10-01T23:00:23.096Z,13.58
2022-10-01T23:03:06.964Z,13.50
2022-10-01T23:05:52.501Z,13.47
2022-10-01T23:08:43.460Z,13.44
2022-10-01T23:11:25.117Z,13.42
2022-10-01T23:14:22.696Z,13.41
2022-10-01T23:17:04.757Z,13.44
2022-10-01T23:19:41.691Z,13.44
2022-10-01T23:22:11.322Z,13.48
2022-10-01T23:25:15.996Z,13.47
2022-10-01T23:28:13.805Z,13.46
2022-10-01T23:31:19.488Z,13.51
2022-10-01T23:33:53.982Z,13.56
2022-10-01T23:37:21.589Z,13.61
2022-10-01T23:40:04.412Z,13.59
2022-10-01T23:42:49.500Z,13.70
2022-10-01T23:45:28.189Z,13.71
2022-10-01T23:48:08.428Z,13.63
2022-10-01T23:50:58.925Z,13.46
2022-10-01T23:53:32.786Z,13.36
2022-10-01T23:56:23.532Z,13.27
2022-10-01T23:59:03.184Z,13.26
